Time;durP1;ratioP1;P1;durP2;ratioP2;P2;SDS_P1;SDS_P2;PMS_P1;PMS_P2;Temp;Humidity;BMP_temperature;BMP_pressure;BME280_temperature;BME280_humidity;BME280_pressure;Samples;Min_cycle;Max_cycle;Signal;HPM_P1;HPM_P2
2021/05/08 00:01:55;;;;;;;4.32;3.20;;;307.80;2304.00;;;;;;5093129;28;20027;-76
2021/05/08 00:04:21;;;;;;;4.63;2.95;;;307.90;2304.00;;;;;;5093178;28;20020;-71
2021/05/08 00:06:47;;;;;;;4.95;3.22;;;307.90;2304.00;;;;;;5092847;28;20516;-70
2021/05/08 00:09:13;;;;;;;5.35;3.33;;;307.90;2304.00;;;;;;5092893;28;20028;-72
2021/05/08 00:11:40;;;;;;;4.57;3.38;;;307.80;2278.40;;;;;;5091479;28;20424;-71
2021/05/08 00:14:07;;;;;;;4.32;3.35;;;307.80;2278.40;;;;;;5093418;28;20026;-75
2021/05/08 00:16:33;;;;;;;4.07;3.45;;;307.90;2278.40;;;;;;5093510;28;20349;-76
2021/05/08 00:18:59;;;;;;;4.85;3.17;;;307.90;2252.80;;;;;;5093442;28;20021;-75
2021/05/08 00:21:25;;;;;;;4.50;3.20;;;307.80;2252.80;;;;;;5093384;28;20024;-75
2021/05/08 00:23:51;;;;;;;6.00;3.65;;;307.70;2278.40;;;;;;5093570;28;20047;-74
2021/05/08 00:26:17;;;;;;;4.75;3.40;;;307.80;2227.20;;;;;;5093377;28;20063;-80
2021/05/08 00:28:43;;;;;;;4.63;2.90;;;307.70;2227.20;;;;;;5093631;28;20035;-76
2021/05/08 00:31:08;;;;;;;4.72;3.08;;;307.70;2201.60;;;;;;5093184;28;20032;-70
2021/05/08 00:33:34;;;;;;;3.75;2.92;;;307.80;2201.60;;;;;;5093262;28;20197;-76
2021/05/08 00:36:00;;;;;;;4.57;3.45;;;307.80;2201.60;;;;;;5093623;28;20020;-78
2021/05/08 00:38:26;;;;;;;6.00;2.90;;;307.70;2201.60;;;;;;5093546;28;20483;-77
2021/05/08 00:40:52;;;;;;;7.63;3.38;;;307.80;2201.60;;;;;;5094064;28;20034;-74
2021/05/08 00:43:18;;;;;;;4.70;2.92;;;307.80;2176.00;;;;;;5093926;28;20035;-74
2021/05/08 00:45:44;;;;;;;4.63;3.10;;;307.80;2176.00;;;;;;5093827;28;20040;-74
2021/05/08 00:48:12;;;;;;;5.53;3.22;;;307.70;2201.60;;;;;;5094171;28;20082;-70
2021/05/08 00:50:38;;;;;;;5.80;3.20;;;307.70;2201.60;;;;;;5092550;28;20392;-72
2021/05/08 00:53:07;;;;;;;4.80;3.08;;;307.70;2176.00;;;;;;5092582;28;20073;-70
2021/05/08 00:55:33;;;;;;;3.25;2.88;;;307.70;2176.00;;;;;;5092705;28;20066;-77
2021/05/08 00:58:00;;;;;;;4.85;3.30;;;307.70;2176.00;;;;;;5092637;28;20115;-72
2021/05/08 01:00:27;;;;;;;4.32;3.20;;;307.70;2150.40;;;;;;5089969;28;20487;-75
2021/05/08 01:02:53;;;;;;;4.22;3.10;;;307.70;2176.00;;;;;;5092567;28;20028;-76
2021/05/08 01:05:20;;;;;;;6.50;3.60;;;307.70;2176.00;;;;;;5092595;28;20078;-75
2021/05/08 01:07:46;;;;;;;5.10;3.00;;;307.70;2176.00;;;;;;5089877;28;20027;-75
2021/05/08 01:10:14;;;;;;;4.18;3.33;;;307.70;2176.00;;;;;;5092240;28;20036;-74
2021/05/08 01:12:41;;;;;;;4.13;3.25;;;307.70;2176.00;;;;;;5092533;28;20027;-72
2021/05/08 01:15:09;;;;;;;4.85;3.65;;;307.70;2176.00;;;;;;5090194;28;20535;-74
2021/05/08 01:17:36;;;;;;;6.25;3.30;;;307.80;2176.00;;;;;;5093835;28;20472;-75
2021/05/08 01:20:08;;;;;;;3.97;3.08;;;307.70;2176.00;;;;;;5096782;28;20499;-75
2021/05/08 01:22:34;;;;;;;6.55;3.38;;;307.80;2176.00;;;;;;5096799;28;20020;-76
2021/05/08 01:25:00;;;;;;;4.70;3.67;;;307.80;2176.00;;;;;;5096598;28;20088;-75
2021/05/08 01:27:26;;;;;;;4.78;3.30;;;307.80;2176.00;;;;;;5095194;28;20075;-73
2021/05/08 01:29:52;;;;;;;4.10;3.20;;;307.90;2150.40;;;;;;5095049;28;20384;-75
2021/05/08 01:32:17;;;;;;;4.00;3.08;;;307.90;2150.40;;;;;;5096388;28;20032;-75
2021/05/08 01:34:43;;;;;;;4.88;3.55;;;307.90;2150.40;;;;;;5096271;28;20468;-74
2021/05/08 01:37:09;;;;;;;4.88;3.10;;;307.90;2150.40;;;;;;5096556;28;20456;-76
2021/05/08 01:39:35;;;;;;;6.72;3.40;;;307.90;2150.40;;;;;;5096088;28;20067;-72
2021/05/08 01:42:01;;;;;;;5.15;3.30;;;307.90;2150.40;;;;;;5096225;28;20466;-76
2021/05/08 01:44:27;;;;;;;4.88;3.50;;;307.90;2150.40;;;;;;5096159;28;20028;-75
2021/05/08 01:46:54;;;;;;;5.15;3.70;;;307.90;2150.40;;;;;;5095995;28;20028;-75
2021/05/08 01:49:20;;;;;;;5.50;3.50;;;307.80;2150.40;;;;;;5096010;28;20027;-75
2021/05/08 01:51:47;;;;;;;6.63;3.30;;;307.80;2150.40;;;;;;5095876;28;20149;-70
2021/05/08 01:54:16;;;;;;;5.00;3.28;;;307.70;2150.40;;;;;;5095930;28;20109;-75
2021/05/08 01:56:43;;;;;;;5.15;3.20;;;307.80;2124.80;;;;;;5096243;28;20103;-75
2021/05/08 01:59:09;;;;;;;4.13;3.25;;;307.90;2124.80;;;;;;5096057;28;20024;-74
2021/05/08 02:01:36;;;;;;;3.53;3.00;;;307.80;2099.20;;;;;;5095802;28;20450;-73
2021/05/08 02:04:02;;;;;;;4.70;3.00;;;307.70;2073.60;;;;;;5095956;28;20047;-73
2021/05/08 02:06:28;;;;;;;6.78;3.00;;;307.60;2073.60;;;;;;5094420;28;20016;-73
2021/05/08 02:08:54;;;;;;;3.78;3.10;;;307.50;2099.20;;;;;;5095644;28;20024;-74
2021/05/08 02:11:20;;;;;;;4.07;2.85;;;307.60;2073.60;;;;;;5095265;28;20519;-74
2021/05/08 02:13:45;;;;;;;5.15;3.08;;;307.70;2073.60;;;;;;5095947;28;20027;-70
2021/05/08 02:16:11;;;;;;;3.35;2.50;;;307.60;2073.60;;;;;;5095476;28;20024;-70
2021/05/08 02:18:37;;;;;;;3.63;2.67;;;307.50;2073.60;;;;;;5095497;28;20047;-70
2021/05/08 02:21:04;;;;;;;5.90;2.85;;;307.50;2048.00;;;;;;5095324;28;20024;-74
2021/05/08 02:23:29;;;;;;;5.65;3.03;;;307.40;2048.00;;;;;;5095620;28;20468;-74
2021/05/08 02:25:55;;;;;;;4.00;2.80;;;307.50;2048.00;;;;;;5095370;28;20111;-71
2021/05/08 02:28:21;;;;;;;5.88;2.95;;;307.30;2048.00;;;;;;5095258;28;20020;-74
2021/05/08 02:30:47;;;;;;;4.03;3.03;;;307.20;2022.40;;;;;;5095218;28;20377;-74
2021/05/08 02:33:13;;;;;;;3.70;2.63;;;282.50;2022.40;;;;;;5095213;28;20140;-74
2021/05/08 02:35:39;;;;;;;5.68;3.03;;;282.50;1996.80;;;;;;5095149;28;20032;-72
2021/05/08 02:38:06;;;;;;;5.30;2.65;;;282.50;1971.20;;;;;;5095072;28;20070;-70
2021/05/08 02:40:34;;;;;;;5.93;2.85;;;282.40;1996.80;;;;;;5095016;28;20039;-73
2021/05/08 02:43:01;;;;;;;4.88;3.05;;;282.50;1996.80;;;;;;5095003;28;20016;-75
2021/05/08 02:45:27;;;;;;;8.05;3.40;;;282.30;1996.80;;;;;;5094921;28;20038;-74
2021/05/08 02:47:53;;;;;;;4.47;3.08;;;282.40;1996.80;;;;;;5094942;28;20107;-75
2021/05/08 02:50:21;;;;;;;4.95;3.33;;;282.50;1996.80;;;;;;5094746;28;20107;-75
2021/05/08 02:52:47;;;;;;;4.45;3.00;;;282.50;1996.80;;;;;;5094733;28;20036;-75
2021/05/08 02:55:14;;;;;;;5.93;3.25;;;282.30;1996.80;;;;;;5094861;28;20031;-74
2021/05/08 02:57:40;;;;;;;5.03;3.05;;;282.50;1996.80;;;;;;5093476;28;20393;-73
2021/05/08 03:00:09;;;;;;;4.10;3.38;;;282.40;1945.60;;;;;;5094922;28;20035;-70
2021/05/08 03:02:35;;;;;;;4.65;3.50;;;282.40;1971.20;;;;;;5094657;28;20032;-74
2021/05/08 03:05:01;;;;;;;5.28;3.30;;;282.30;1945.60;;;;;;5094567;28;20380;-74
2021/05/08 03:07:27;;;;;;;4.65;3.35;;;282.20;1971.20;;;;;;5094776;28;20031;-74
2021/05/08 03:09:53;;;;;;;4.03;3.22;;;282.20;1945.60;;;;;;5094432;28;20036;-72
2021/05/08 03:12:19;;;;;;;5.38;3.35;;;282.00;1971.20;;;;;;5094323;28;20060;-70
2021/05/08 03:14:45;;;;;;;5.63;3.03;;;282.00;1996.80;;;;;;5094994;28;20096;-70
2021/05/08 03:17:11;;;;;;;4.20;3.30;;;282.10;1971.20;;;;;;5094466;28;20028;-72
2021/05/08 03:19:37;;;;;;;4.10;3.05;;;282.10;1971.20;;;;;;5094803;28;20020;-70
2021/05/08 03:22:06;;;;;;;5.60;3.13;;;282.10;1971.20;;;;;;5094357;28;20092;-74
2021/05/08 03:24:32;;;;;;;5.05;2.95;;;282.10;1945.60;;;;;;5094257;28;20545;-75
2021/05/08 03:26:59;;;;;;;5.13;3.13;;;282.10;1971.20;;;;;;5094185;28;20024;-74
2021/05/08 03:29:25;;;;;;;5.03;3.42;;;282.10;1945.60;;;;;;5094116;28;20032;-74
2021/05/08 03:31:51;;;;;;;6.78;3.20;;;282.10;1945.60;;;;;;5093978;28;20541;-70
2021/05/08 03:34:17;;;;;;;3.67;3.10;;;282.00;1920.00;;;;;;5094500;28;20028;-76
2021/05/08 03:36:42;;;;;;;6.10;3.28;;;282.00;1945.60;;;;;;5094589;28;20093;-76
2021/05/08 03:39:08;;;;;;;6.03;2.95;;;281.90;1920.00;;;;;;5094042;28;20020;-74
2021/05/08 03:41:34;;;;;;;4.82;3.25;;;281.80;1945.60;;;;;;5092375;28;20028;-75
2021/05/08 03:44:00;;;;;;;7.65;3.30;;;281.80;1945.60;;;;;;5093986;28;20497;-73
2021/05/08 03:46:26;;;;;;;6.15;3.40;;;281.60;1971.20;;;;;;5093911;28;20092;-71
2021/05/08 03:48:52;;;;;;;4.70;2.95;;;281.60;1945.60;;;;;;5093763;28;20491;-73
2021/05/08 03:51:22;;;;;;;4.53;3.03;;;281.70;1971.20;;;;;;5092468;28;20392;-72
2021/05/08 03:53:48;;;;;;;3.83;3.20;;;281.60;1920.00;;;;;;5097043;28;20020;-70
2021/05/08 03:56:13;;;;;;;6.28;3.08;;;281.70;1945.60;;;;;;5094655;28;20472;-76
2021/05/08 03:58:39;;;;;;;5.47;3.63;;;281.70;1920.00;;;;;;5093860;28;20031;-75
2021/05/08 04:01:05;;;;;;;6.30;3.50;;;281.70;1945.60;;;;;;5093754;28;20067;-74
2021/05/08 04:03:31;;;;;;;4.78;3.20;;;281.80;1945.60;;;;;;5093756;28;20388;-77
2021/05/08 04:05:57;;;;;;;4.80;2.88;;;281.70;1920.00;;;;;;5093782;28;20069;-70
2021/05/08 04:08:23;;;;;;;5.38;3.35;;;281.70;1920.00;;;;;;5097221;28;20038;-77
2021/05/08 04:10:50;;;;;;;5.28;3.10;;;281.70;1920.00;;;;;;5096323;28;20127;-75
2021/05/08 04:13:16;;;;;;;3.85;3.33;;;256.90;1894.40;;;;;;5095133;28;20020;-70
2021/05/08 04:15:44;;;;;;;4.38;3.03;;;256.70;1894.40;;;;;;5093546;28;20043;-70
2021/05/08 04:18:11;;;;;;;3.88;3.17;;;256.80;1920.00;;;;;;5093465;28;20028;-75
2021/05/08 04:20:37;;;;;;;4.40;3.30;;;256.80;1920.00;;;;;;5093424;28;20039;-75
2021/05/08 04:23:03;;;;;;;6.75;3.53;;;256.60;1920.00;;;;;;5093504;28;20032;-76
2021/05/08 04:25:29;;;;;;;5.63;4.10;;;256.60;1894.40;;;;;;5093622;28;20046;-75
2021/05/08 04:27:55;;;;;;;6.78;4.15;;;256.60;1920.00;;;;;;5093415;28;20472;-72
2021/05/08 04:30:21;;;;;;;4.45;3.40;;;256.80;1894.40;;;;;;5093646;28;20399;-73
2021/05/08 04:32:48;;;;;;;4.93;3.67;;;256.90;1894.40;;;;;;5094391;28;20472;-75
2021/05/08 04:35:14;;;;;;;4.85;3.75;;;256.80;1843.20;;;;;;5093805;28;20111;-72
2021/05/08 04:37:40;;;;;;;4.00;3.50;;;256.80;1894.40;;;;;;5093286;28;20031;-70
2021/05/08 04:40:06;;;;;;;5.60;3.65;;;256.80;1894.40;;;;;;5093325;28;20028;-70
2021/05/08 04:42:32;;;;;;;6.75;3.10;;;256.80;1868.80;;;;;;5093817;28;20032;-70
2021/05/08 04:44:58;;;;;;;8.05;3.40;;;256.90;1894.40;;;;;;5093264;28;20016;-75
2021/05/08 04:47:25;;;;;;;8.52;5.05;;;256.90;1894.40;;;;;;5093229;28;20035;-77
2021/05/08 04:49:54;;;;;;;7.32;4.50;;;256.90;1894.40;;;;;;5093381;28;20460;-74
2021/05/08 04:52:20;;;;;;;4.60;3.72;;;256.80;1868.80;;;;;;5093534;28;20074;-74
2021/05/08 04:54:46;;;;;;;6.28;3.65;;;256.70;1868.80;;;;;;5097030;28;20430;-74
2021/05/08 04:57:13;;;;;;;6.13;4.22;;;256.60;1868.80;;;;;;5097096;28;20085;-73
2021/05/08 04:59:39;;;;;;;5.30;3.25;;;256.70;1894.40;;;;;;5097192;28;20476;-70
2021/05/08 05:02:05;;;;;;;5.80;4.00;;;256.60;1868.80;;;;;;5096440;28;20039;-74
2021/05/08 05:04:31;;;;;;;7.45;3.70;;;256.60;1894.40;;;;;;5096887;28;20028;-74
2021/05/08 05:06:57;;;;;;;6.35;4.07;;;256.70;1868.80;;;;;;5096812;28;20099;-74
2021/05/08 05:09:23;;;;;;;6.40;4.38;;;256.70;1868.80;;;;;;5096799;28;20024;-75
2021/05/08 05:11:50;;;;;;;5.43;4.35;;;256.70;1868.80;;;;;;5095113;28;20032;-70
2021/05/08 05:14:16;;;;;;;5.65;3.75;;;256.80;1868.80;;;;;;5096223;28;20437;-71
2021/05/08 05:16:42;;;;;;;6.25;4.15;;;256.90;1894.40;;;;;;5096316;28;20047;-70
2021/05/08 05:19:08;;;;;;;5.03;3.83;;;256.80;1868.80;;;;;;5096199;28;20107;-74
2021/05/08 05:21:34;;;;;;;6.05;4.20;;;256.80;1868.80;;;;;;5096679;28;20085;-76
2021/05/08 05:24:00;;;;;;;5.65;3.80;;;256.70;1894.40;;;;;;5096133;28;20727;-75
2021/05/08 05:26:26;;;;;;;5.38;3.58;;;256.80;1868.80;;;;;;5096118;28;20021;-74
2021/05/08 05:28:52;;;;;;;8.27;4.65;;;256.90;1868.80;;;;;;5096043;28;20024;-74
2021/05/08 05:31:18;;;;;;;7.30;5.07;;;256.80;1894.40;;;;;;5095785;28;20085;-73
2021/05/08 05:33:44;;;;;;;7.00;4.68;;;281.60;1868.80;;;;;;5095882;28;20024;-74
2021/05/08 05:36:10;;;;;;;15.18;9.82;;;256.80;1868.80;;;;;;5095943;28;20027;-72
2021/05/08 05:38:36;;;;;;;9.98;6.95;;;256.90;1868.80;;;;;;5094944;28;20024;-70
2021/05/08 05:41:02;;;;;;;14.27;7.90;;;256.90;1868.80;;;;;;5096110;28;20027;-73
2021/05/08 05:43:28;;;;;;;10.23;4.25;;;256.90;1894.40;;;;;;5096633;28;20068;-70
2021/05/08 05:45:54;;;;;;;4.38;3.97;;;281.60;1894.40;;;;;;5095977;28;20020;-73
2021/05/08 05:48:20;;;;;;;5.13;4.30;;;281.70;1868.80;;;;;;5096351;28;20032;-72
2021/05/08 05:50:46;;;;;;;5.63;4.55;;;281.80;1868.80;;;;;;5095905;28;20157;-72
2021/05/08 05:53:13;;;;;;;7.85;5.78;;;281.80;1894.40;;;;;;5095912;28;20095;-73
2021/05/08 05:55:39;;;;;;;7.85;5.05;;;282.00;1894.40;;;;;;5095919;28;20020;-62
2021/05/08 05:58:05;;;;;;;7.63;4.60;;;282.10;1868.80;;;;;;5095873;28;20024;-69
2021/05/08 06:00:31;;;;;;;6.28;4.75;;;282.20;1868.80;;;;;;5095388;28;20119;-70
2021/05/08 06:02:57;;;;;;;6.38;4.25;;;282.20;1843.20;;;;;;5095422;28;20028;-70
2021/05/08 06:05:23;;;;;;;8.52;4.35;;;282.20;1817.60;;;;;;5095466;28;20016;-69
2021/05/08 06:07:49;;;;;;;17.17;5.25;;;282.20;1817.60;;;;;;5095744;28;20025;-67
2021/05/08 06:10:15;;;;;;;7.55;5.28;;;282.30;1817.60;;;;;;5094000;28;20526;-69
2021/05/08 06:12:41;;;;;;;5.63;4.35;;;307.20;1843.20;;;;;;5095624;28;20028;-69
2021/05/08 06:15:09;;;;;;;6.53;4.63;;;307.20;1817.60;;;;;;5095697;28;20024;-69
2021/05/08 06:17:35;;;;;;;7.55;4.80;;;307.20;1792.00;;;;;;5095434;28;20423;-70
2021/05/08 06:20:02;;;;;;;5.07;4.30;;;307.20;1843.20;;;;;;5095476;28;20024;-70
2021/05/08 06:22:28;;;;;;;9.73;4.65;;;307.40;1843.20;;;;;;5095657;28;20036;-69
2021/05/08 06:24:54;;;;;;;7.60;4.97;;;307.50;1817.60;;;;;;5096319;28;20028;-70
2021/05/08 06:27:22;;;;;;;12.73;5.38;;;307.50;1817.60;;;;;;5095997;28;20368;-69
2021/05/08 06:29:48;;;;;;;10.80;5.07;;;307.70;1792.00;;;;;;5095151;28;20076;-68
2021/05/08 06:32:14;;;;;;;7.25;3.97;;;307.80;1766.40;;;;;;5095092;28;20123;-69
2021/05/08 06:34:39;;;;;;;7.20;4.22;;;307.80;1766.40;;;;;;5095012;28;20390;-69
2021/05/08 06:37:05;;;;;;;6.95;4.78;;;307.80;1740.80;;;;;;5093734;28;20035;-69
2021/05/08 06:39:32;;;;;;;5.45;4.43;;;307.90;1740.80;;;;;;5093673;28;20024;-69
2021/05/08 06:41:58;;;;;;;6.55;4.72;;;308.00;1766.40;;;;;;5094954;28;20069;-69
2021/05/08 06:44:25;;;;;;;51.50;8.38;;;332.80;1766.40;;;;;;5095451;28;20016;-69
2021/05/08 06:46:53;;;;;;;7.15;4.65;;;308.10;1792.00;;;;;;5094975;28;20419;-69
2021/05/08 06:49:19;;;;;;;8.88;4.50;;;333.00;1817.60;;;;;;5095156;28;20078;-69
2021/05/08 06:51:45;;;;;;;7.10;4.93;;;333.20;1740.80;;;;;;5094590;28;20500;-69
2021/05/08 06:54:11;;;;;;;7.78;4.50;;;333.20;1689.60;;;;;;5094680;28;20020;-69
2021/05/08 06:56:37;;;;;;;7.22;4.65;;;333.30;1715.20;;;;;;5093606;28;20091;-68
2021/05/08 06:59:03;;;;;;;7.57;4.72;;;333.20;1689.60;;;;;;5095065;28;20427;-69
2021/05/08 07:01:29;;;;;;;5.18;3.92;;;333.40;1715.20;;;;;;5094700;28;20104;-69
2021/05/08 07:03:56;;;;;;;5.93;4.72;;;333.40;1689.60;;;;;;5095023;28;20107;-69
2021/05/08 07:06:24;;;;;;;15.32;5.60;;;333.50;1740.80;;;;;;5094520;28;20383;-69
2021/05/08 07:08:50;;;;;;;6.85;4.72;;;333.70;1664.00;;;;;;5094431;28;20061;-69
2021/05/08 07:11:16;;;;;;;6.35;4.22;;;333.70;1689.60;;;;;;5094223;28;20044;-68
2021/05/08 07:13:42;;;;;;;9.40;5.20;;;358.40;1664.00;;;;;;5094412;28;20380;-69
2021/05/08 07:16:08;;;;;;;9.50;5.75;;;358.40;1689.60;;;;;;5093882;28;20077;-69
2021/05/08 07:18:34;;;;;;;34.47;9.13;;;358.40;1689.60;;;;;;5094547;28;20380;-68
2021/05/08 07:21:00;;;;;;;14.02;7.30;;;358.40;1689.60;;;;;;5094270;28;20016;-68
2021/05/08 07:23:26;;;;;;;7.32;5.00;;;358.40;1664.00;;;;;;5094164;28;20499;-68
2021/05/08 07:25:52;;;;;;;7.25;5.82;;;333.70;1612.80;;;;;;5094161;28;20031;-68
2021/05/08 07:28:20;;;;;;;11.82;8.43;;;358.40;1689.60;;;;;;5094376;28;20028;-68
2021/05/08 07:30:47;;;;;;;135.88;12.02;;;358.50;1664.00;;;;;;5094283;28;20040;-67
2021/05/08 07:33:16;;;;;;;19.08;6.43;;;358.60;1689.60;;;;;;5094300;28;20020;-68
2021/05/08 07:35:43;;;;;;;8.85;5.25;;;358.60;1689.60;;;;;;5094388;28;20081;-69
2021/05/08 07:38:09;;;;;;;8.38;5.13;;;358.60;1638.40;;;;;;5093920;28;20476;-69
2021/05/08 07:40:38;;;;;;;8.02;5.45;;;358.60;1638.40;;;;;;5094067;28;20024;-68
2021/05/08 07:43:04;;;;;;;13.15;6.10;;;358.70;1664.00;;;;;;5094212;28;20103;-68
2021/05/08 07:45:31;;;;;;;19.23;12.32;;;358.70;1689.60;;;;;;5093922;28;20024;-68
2021/05/08 07:47:58;;;;;;;10.90;6.65;;;358.90;1638.40;;;;;;5093750;28;20024;-68
2021/05/08 07:50:25;;;;;;;11.23;5.57;;;358.90;1638.40;;;;;;5093927;28;20028;-68
2021/05/08 07:52:51;;;;;;;18.08;6.88;;;358.90;1612.80;;;;;;5093957;28;20464;-68
2021/05/08 07:55:17;;;;;;;11.48;5.18;;;358.90;1638.40;;;;;;5092146;28;20537;-68
2021/05/08 07:57:43;;;;;;;144.18;16.55;;;358.90;1612.80;;;;;;5093985;28;20107;-68
2021/05/08 08:00:14;;;;;;;6.65;5.07;;;359.00;1587.20;;;;;;5093502;28;20035;-69
2021/05/08 08:02:40;;;;;;;251.30;24.30;;;359.00;1587.20;;;;;;5093908;28;20368;-69
2021/05/08 08:05:07;;;;;;;7.75;6.40;;;358.90;1536.00;;;;;;5093882;28;20028;-69
2021/05/08 08:07:33;;;;;;;7.95;6.25;;;358.90;1587.20;;;;;;5093565;28;20107;-69
2021/05/08 08:10:00;;;;;;;10.32;7.18;;;358.90;1561.60;;;;;;5093349;28;20131;-69
2021/05/08 08:12:26;;;;;;;14.30;5.72;;;358.90;1561.60;;;;;;5093426;28;20020;-69
2021/05/08 08:14:52;;;;;;;6.25;5.47;;;359.00;1536.00;;;;;;5093800;28;20028;-69
2021/05/08 08:17:18;;;;;;;75.22;11.75;;;359.10;1587.20;;;;;;5093294;28;20499;-69
2021/05/08 08:19:47;;;;;;;21.02;6.80;;;359.10;1587.20;;;;;;5093097;28;20032;-69
2021/05/08 08:22:14;;;;;;;9.93;7.10;;;359.10;1561.60;;;;;;5093323;28;20380;-70
2021/05/08 08:24:39;;;;;;;6.97;5.85;;;359.00;1587.20;;;;;;5093492;28;20028;-70
2021/05/08 08:27:06;;;;;;;22.25;6.80;;;358.90;1510.40;;;;;;5094870;28;20089;-69
2021/05/08 08:29:32;;;;;;;11.90;5.95;;;358.90;1510.40;;;;;;5097158;28;20036;-69
2021/05/08 08:31:58;;;;;;;9.98;6.88;;;359.00;1561.60;;;;;;5097605;28;20079;-69
2021/05/08 08:34:24;;;;;;;14.45;8.90;;;359.10;1536.00;;;;;;5097573;28;20020;-70
2021/05/08 08:36:49;;;;;;;21.50;7.50;;;359.10;1510.40;;;;;;5097416;28;20441;-74
2021/05/08 08:39:15;;;;;;;11.50;6.30;;;359.10;1561.60;;;;;;5097408;28;20024;-72
2021/05/08 08:41:42;;;;;;;11.07;6.35;;;359.20;1536.00;;;;;;5096988;28;20108;-70
2021/05/08 08:44:11;;;;;;;58.22;10.27;;;359.20;1510.40;;;;;;5097504;28;20103;-71
2021/05/08 08:46:41;;;;;;;7.55;6.70;;;359.30;1510.40;;;;;;5097465;28;20031;-70
2021/05/08 08:49:08;;;;;;;6.57;5.85;;;384.00;1510.40;;;;;;5097051;28;20027;-71
2021/05/08 08:51:34;;;;;;;9.07;6.35;;;359.30;1459.20;;;;;;5097646;28;20115;-71
2021/05/08 08:54:00;;;;;;;9.20;6.55;;;384.00;1459.20;;;;;;5097313;28;20028;-71
2021/05/08 08:56:40;;;;;;;11.10;6.43;;;384.00;1510.40;;;;;;5097273;28;20039;-69
2021/05/08 09:01:49;;;;;;;7.90;6.75;;;384.00;1484.80;;;;;;5096915;28;20020;-72
2021/05/08 09:04:15;;;;;;;9.25;7.75;;;384.00;1459.20;;;;;;5097102;28;20069;-71
2021/05/08 09:06:43;;;;;;;8.98;6.50;;;384.00;1484.80;;;;;;5095507;28;20548;-71
2021/05/08 09:09:09;;;;;;;9.70;7.28;;;359.30;1433.60;;;;;;5096562;28;20021;-71
2021/05/08 09:11:46;;;;;;;9.20;6.97;;;384.00;1433.60;;;;;;5096316;28;20138;-71
2021/05/08 09:14:20;;;;;;;9.50;7.03;;;384.10;1484.80;;;;;;5096308;28;20026;-71
2021/05/08 09:17:13;;;;;;;7.63;6.45;;;384.20;1433.60;;;;;;5096087;28;20047;-71
2021/05/08 09:19:42;;;;;;;13.98;6.97;;;384.00;1382.40;;;;;;5075177;28;20036;-69
2021/05/08 09:22:26;;;;;;;8.75;7.30;;;359.30;1356.80;;;;;;5076464;28;20021;-71
2021/05/08 09:25:14;;;;;;;10.00;6.53;;;359.20;1433.60;;;;;;5076375;28;20021;-72
2021/05/08 09:27:56;;;;;;;8.50;6.68;;;384.00;1433.60;;;;;;5076327;28;20021;-71
2021/05/08 09:30:26;;;;;;;8.00;6.95;;;359.30;1382.40;;;;;;5088964;28;20476;-75
2021/05/08 09:32:55;;;;;;;7.72;6.40;;;384.10;1382.40;;;;;;5096031;28;20144;-71
2021/05/08 09:35:22;;;;;;;8.15;5.78;;;384.20;1305.60;;;;;;5095411;28;20028;-68
2021/05/08 09:37:50;;;;;;;6.53;5.68;;;384.40;1280.00;;;;;;5093457;28;20056;-75
2021/05/08 09:40:19;;;;;;;18.05;6.15;;;384.20;1305.60;;;;;;5095865;28;20043;-73
2021/05/08 09:43:05;;;;;;;9.35;6.85;;;384.50;1331.20;;;;;;5095873;28;20028;-68
2021/05/08 09:45:38;;;;;;;12.20;8.13;;;384.60;1331.20;;;;;;5082002;28;20097;-70
2021/05/08 09:48:35;;;;;;;34.50;10.85;;;384.40;1305.60;;;;;;5094697;28;20032;-70
2021/05/08 09:51:27;;;;;;;9.55;8.18;;;384.40;1280.00;;;;;;5095539;28;20053;-69
2021/05/08 09:54:02;;;;;;;8.27;6.90;;;384.70;1305.60;;;;;;5096408;28;20164;-73
2021/05/08 09:56:48;;;;;;;9.27;6.20;;;384.80;1228.80;;;;;;5096029;28;20032;-70
2021/05/08 09:59:34;;;;;;;8.10;6.60;;;409.60;1280.00;;;;;;5095993;28;20485;-74
2021/05/08 10:02:03;;;;;;;12.55;7.20;;;409.60;1228.80;;;;;;5095842;28;20111;-71
2021/05/08 10:04:49;;;;;;;14.45;9.00;;;409.60;1254.40;;;;;;5095926;28;20063;-67
2021/05/08 10:07:22;;;;;;;14.82;7.97;;;384.90;1228.80;;;;;;5095924;28;20031;-69
2021/05/08 10:09:49;;;;;;;12.18;7.72;;;384.70;1254.40;;;;;;5095242;28;22113;-75
2021/05/08 10:12:17;;;;;;;16.88;6.35;;;384.70;1228.80;;;;;;5095718;28;20040;-70
2021/05/08 10:14:48;;;;;;;40.50;8.90;;;384.70;1228.80;;;;;;5095217;28;20457;-71
2021/05/08 10:17:24;;;;;;;8.38;6.82;;;384.80;1280.00;;;;;;5095803;28;20111;-69
2021/05/08 10:19:52;;;;;;;7.90;6.72;;;409.60;1280.00;;;;;;5095807;28;20464;-70
2021/05/08 10:22:18;;;;;;;9.07;6.03;;;384.90;1280.00;;;;;;5095345;28;20024;-69
2021/05/08 10:24:48;;;;;;;10.75;6.10;;;384.90;1254.40;;;;;;5095167;28;20097;-69
2021/05/08 10:27:15;;;;;;;11.18;6.53;;;384.90;1203.20;;;;;;5095199;28;20020;-68
2021/05/08 10:29:46;;;;;;;9.00;6.68;;;384.70;1228.80;;;;;;5095233;28;20035;-69
2021/05/08 10:32:14;;;;;;;7.80;7.00;;;384.70;1254.40;;;;;;5095346;28;20038;-69
2021/05/08 10:35:02;;;;;;;9.25;6.60;;;384.60;1305.60;;;;;;5095079;28;20141;-69
2021/05/08 10:37:29;;;;;;;7.32;5.80;;;384.50;1228.80;;;;;;5093928;28;20476;-68
2021/05/08 10:39:59;;;;;;;7.15;5.30;;;384.80;1228.80;;;;;;5095099;28;20032;-67
2021/05/08 10:42:41;;;;;;;7.93;6.47;;;409.60;1254.40;;;;;;5095433;28;20415;-70
2021/05/08 10:45:27;;;;;;;11.30;6.50;;;409.60;1280.00;;;;;;5095070;28;20021;-68
2021/05/08 10:47:56;;;;;;;11.13;7.15;;;409.60;1228.80;;;;;;5080868;28;20514;-68
2021/05/08 10:50:23;;;;;;;13.25;6.65;;;384.90;1254.40;;;;;;5093933;28;20479;-69
2021/05/08 10:53:02;;;;;;;7.22;6.18;;;384.80;1203.20;;;;;;5094818;28;20089;-69
2021/05/08 10:55:30;;;;;;;7.32;6.57;;;384.90;1203.20;;;;;;5094882;28;20035;-68
2021/05/08 10:58:15;;;;;;;8.27;6.03;;;409.60;1331.20;;;;;;5095155;28;20043;-71
2021/05/08 11:00:44;;;;;;;8.13;5.57;;;409.60;1305.60;;;;;;5093507;28;20035;-68
2021/05/08 11:03:11;;;;;;;8.32;5.03;;;409.70;1177.60;;;;;;5094115;28;20039;-69
2021/05/08 11:05:49;;;;;;;6.57;5.32;;;409.80;1203.20;;;;;;5094137;28;20476;-70
2021/05/08 11:08:27;;;;;;;6.65;5.45;;;409.70;1254.40;;;;;;5094103;28;20020;-69
2021/05/08 11:11:22;;;;;;;17.55;9.15;;;384.90;1228.80;;;;;;5093724;28;20040;-69
2021/05/08 11:13:53;;;;;;;8.98;6.40;;;384.90;1203.20;;;;;;5090251;28;20028;-69
2021/05/08 11:16:27;;;;;;;7.00;5.75;;;409.60;1280.00;;;;;;5093975;28;20490;-69
2021/05/08 11:18:58;;;;;;;11.98;7.82;;;409.80;1177.60;;;;;;5093891;28;20016;-70
2021/05/08 11:21:24;;;;;;;6.63;5.65;;;409.70;1126.40;;;;;;5074034;28;20039;-69
2021/05/08 11:24:01;;;;;;;6.70;5.55;;;409.60;1177.60;;;;;;5074199;28;20023;-71
2021/05/08 11:26:34;;;;;;;8.40;6.03;;;384.80;1228.80;;;;;;5074494;28;20059;-70
2021/05/08 11:29:06;;;;;;;5.65;5.03;;;409.60;1228.80;;;;;;5090290;28;20020;-69
2021/05/08 11:31:46;;;;;;;6.95;5.75;;;409.80;1228.80;;;;;;5093947;28;20102;-69
2021/05/08 11:34:14;;;;;;;10.13;5.53;;;410.00;1177.60;;;;;;5094031;28;20019;-68
2021/05/08 11:36:52;;;;;;;6.55;5.65;;;410.00;1203.20;;;;;;5093353;28;20016;-68
2021/05/08 11:39:26;;;;;;;12.13;6.38;;;410.10;1177.60;;;;;;5094612;28;20056;-68
2021/05/08 11:41:54;;;;;;;10.88;8.05;;;409.90;1203.20;;;;;;5094386;28;20026;-68
2021/05/08 11:44:35;;;;;;;5.85;5.00;;;409.90;1254.40;;;;;;5094307;28;20393;-69
2021/05/08 11:47:29;;;;;;;6.88;5.35;;;409.80;1152.00;;;;;;5094105;28;20376;-69
2021/05/08 11:50:05;;;;;;;7.25;5.63;;;410.00;1203.20;;;;;;5094553;28;20028;-68
2021/05/08 11:52:44;;;;;;;5.18;4.65;;;410.00;1152.00;;;;;;5093869;28;20032;-69
2021/05/08 11:55:13;;;;;;;4.40;4.00;;;410.00;1100.80;;;;;;5093830;28;20024;-66
2021/05/08 11:57:47;;;;;;;6.32;4.68;;;409.90;1049.60;;;;;;5094076;28;20090;-68
2021/05/08 12:00:18;;;;;;;6.50;5.00;;;410.00;1126.40;;;;;;5094361;28;20024;-69
2021/05/08 12:02:44;;;;;;;5.85;5.05;;;410.10;1100.80;;;;;;5093740;28;20093;-69
2021/05/08 12:05:10;;;;;;;6.93;5.47;;;410.00;1126.40;;;;;;5093957;28;20051;-69
2021/05/08 12:07:43;;;;;;;8.02;6.53;;;410.00;1177.60;;;;;;5093556;28;20031;-68
2021/05/08 12:10:20;;;;;;;7.18;5.25;;;410.00;1177.60;;;;;;5093457;28;20048;-69
2021/05/08 12:12:51;;;;;;;8.10;5.53;;;410.20;1177.60;;;;;;5094564;28;20098;-68
2021/05/08 12:15:29;;;;;;;5.95;5.32;;;410.30;1126.40;;;;;;5093461;28;20034;-69
2021/05/08 12:17:56;;;;;;;6.57;5.75;;;410.50;1228.80;;;;;;5094337;28;20153;-69
2021/05/08 12:20:41;;;;;;;6.15;5.45;;;435.20;1177.60;;;;;;5093458;28;20055;-69
2021/05/08 12:23:15;;;;;;;6.18;5.05;;;435.20;1203.20;;;;;;5093495;28;20488;-69
2021/05/08 12:25:41;;;;;;;6.57;5.25;;;410.40;1100.80;;;;;;5093598;28;20024;-69